sensor_id;sensor_type;location;lat;lon;timestamp;P1;durP1;ratioP1;P2;durP2;ratioP2
81531;SDS011;71505;47.030;15.458;2023-07-20T00:02:00;5.35;;;3.20;;
81531;SDS011;71505;47.030;15.458;2023-07-20T00:04:27;6.88;;;3.47;;
81531;SDS011;71505;47.030;15.458;2023-07-20T00:06:53;5.88;;;3.33;;
81531;SDS011;71505;47.030;15.458;2023-07-20T00:09:19;6.13;;;3.25;;
81531;SDS011;71505;47.030;15.458;2023-07-20T00:11:50;4.57;;;3.17;;
81531;SDS011;71505;47.030;15.458;2023-07-20T00:14:17;5.00;;;3.38;;
81531;SDS011;71505;47.030;15.458;2023-07-20T00:16:47;4.00;;;2.80;;
81531;SDS011;71505;47.030;15.458;2023-07-20T00:19:23;4.50;;;3.17;;
81531;SDS011;71505;47.030;15.458;2023-07-20T00:21:52;5.93;;;3.03;;
81531;SDS011;71505;47.030;15.458;2023-07-20T00:24:20;4.20;;;2.80;;
81531;SDS011;71505;47.030;15.458;2023-07-20T00:26:46;3.60;;;2.80;;
81531;SDS011;71505;47.030;15.458;2023-07-20T00:29:12;4.72;;;3.10;;
81531;SDS011;71505;47.030;15.458;2023-07-20T00:31:38;4.30;;;2.80;;
81531;SDS011;71505;47.030;15.458;2023-07-20T00:34:04;5.45;;;3.05;;
81531;SDS011;71505;47.030;15.458;2023-07-20T00:36:31;5.35;;;3.30;;
81531;SDS011;71505;47.030;15.458;2023-07-20T00:38:58;4.63;;;3.00;;
81531;SDS011;71505;47.030;15.458;2023-07-20T00:41:23;4.32;;;3.10;;
81531;SDS011;71505;47.030;15.458;2023-07-20T00:43:50;6.03;;;3.53;;
81531;SDS011;71505;47.030;15.458;2023-07-20T00:46:16;5.68;;;3.15;;
81531;SDS011;71505;47.030;15.458;2023-07-20T00:48:42;5.10;;;3.30;;
81531;SDS011;71505;47.030;15.458;2023-07-20T00:51:08;9.23;;;4.03;;
81531;SDS011;71505;47.030;15.458;2023-07-20T00:53:34;6.13;;;3.58;;
81531;SDS011;71505;47.030;15.458;2023-07-20T00:56:00;4.72;;;3.75;;
81531;SDS011;71505;47.030;15.458;2023-07-20T00:58:26;5.00;;;3.50;;
81531;SDS011;71505;47.030;15.458;2023-07-20T01:00:52;6.03;;;3.65;;
81531;SDS011;71505;47.030;15.458;2023-07-20T01:03:18;5.38;;;3.80;;
81531;SDS011;71505;47.030;15.458;2023-07-20T01:06:03;5.85;;;3.35;;
81531;SDS011;71505;47.030;15.458;2023-07-20T01:11:13;5.57;;;3.30;;
81531;SDS011;71505;47.030;15.458;2023-07-20T01:13:43;6.20;;;3.20;;
81531;SDS011;71505;47.030;15.458;2023-07-20T01:16:09;5.13;;;3.38;;
81531;SDS011;71505;47.030;15.458;2023-07-20T01:18:35;4.43;;;3.38;;
81531;SDS011;71505;47.030;15.458;2023-07-20T01:21:03;4.47;;;3.50;;
81531;SDS011;71505;47.030;15.458;2023-07-20T01:23:58;5.90;;;3.20;;
81531;SDS011;71505;47.030;15.458;2023-07-20T01:26:47;6.63;;;3.15;;
81531;SDS011;71505;47.030;15.458;2023-07-20T01:32:13;5.40;;;3.75;;
81531;SDS011;71505;47.030;15.458;2023-07-20T01:34:42;5.03;;;3.40;;
81531;SDS011;71505;47.030;15.458;2023-07-20T01:37:09;7.15;;;3.63;;
81531;SDS011;71505;47.030;15.458;2023-07-20T01:39:36;5.35;;;3.42;;
81531;SDS011;71505;47.030;15.458;2023-07-20T01:42:03;6.78;;;3.30;;
81531;SDS011;71505;47.030;15.458;2023-07-20T01:44:29;5.53;;;3.20;;
81531;SDS011;71505;47.030;15.458;2023-07-20T01:46:55;5.07;;;3.33;;
81531;SDS011;71505;47.030;15.458;2023-07-20T01:49:21;5.55;;;3.53;;
81531;SDS011;71505;47.030;15.458;2023-07-20T01:51:47;5.65;;;3.10;;
81531;SDS011;71505;47.030;15.458;2023-07-20T01:54:13;4.88;;;3.10;;
81531;SDS011;71505;47.030;15.458;2023-07-20T01:56:39;5.18;;;3.50;;
81531;SDS011;71505;47.030;15.458;2023-07-20T01:59:05;6.20;;;3.65;;
81531;SDS011;71505;47.030;15.458;2023-07-20T02:01:31;6.47;;;3.28;;
81531;SDS011;71505;47.030;15.458;2023-07-20T02:03:57;4.22;;;3.05;;
81531;SDS011;71505;47.030;15.458;2023-07-20T02:06:22;6.97;;;3.25;;
81531;SDS011;71505;47.030;15.458;2023-07-20T02:08:48;6.00;;;3.40;;
81531;SDS011;71505;47.030;15.458;2023-07-20T02:11:14;4.50;;;3.30;;
81531;SDS011;71505;47.030;15.458;2023-07-20T02:13:40;4.68;;;3.30;;
81531;SDS011;71505;47.030;15.458;2023-07-20T02:16:06;4.40;;;3.25;;
81531;SDS011;71505;47.030;15.458;2023-07-20T02:18:32;6.22;;;3.42;;
81531;SDS011;71505;47.030;15.458;2023-07-20T02:20:58;7.00;;;3.67;;
81531;SDS011;71505;47.030;15.458;2023-07-20T02:23:24;6.20;;;3.40;;
81531;SDS011;71505;47.030;15.458;2023-07-20T02:25:50;5.75;;;3.17;;
81531;SDS011;71505;47.030;15.458;2023-07-20T02:28:16;5.57;;;3.10;;
81531;SDS011;71505;47.030;15.458;2023-07-20T02:30:42;5.20;;;3.15;;
81531;SDS011;71505;47.030;15.458;2023-07-20T02:33:08;5.53;;;3.50;;
81531;SDS011;71505;47.030;15.458;2023-07-20T02:35:34;5.65;;;3.35;;
81531;SDS011;71505;47.030;15.458;2023-07-20T02:38:00;7.00;;;3.33;;
81531;SDS011;71505;47.030;15.458;2023-07-20T02:40:26;5.32;;;3.50;;
81531;SDS011;71505;47.030;15.458;2023-07-20T02:42:53;5.43;;;3.28;;
81531;SDS011;71505;47.030;15.458;2023-07-20T02:45:18;4.72;;;3.17;;
81531;SDS011;71505;47.030;15.458;2023-07-20T02:47:44;5.70;;;3.40;;
81531;SDS011;71505;47.030;15.458;2023-07-20T02:50:10;6.65;;;3.35;;
81531;SDS011;71505;47.030;15.458;2023-07-20T02:52:38;4.20;;;3.03;;
81531;SDS011;71505;47.030;15.458;2023-07-20T02:55:04;4.35;;;2.90;;
81531;SDS011;71505;47.030;15.458;2023-07-20T02:57:31;6.18;;;3.35;;
81531;SDS011;71505;47.030;15.458;2023-07-20T02:59:57;5.22;;;3.38;;
81531;SDS011;71505;47.030;15.458;2023-07-20T03:02:23;3.83;;;3.00;;
81531;SDS011;71505;47.030;15.458;2023-07-20T03:04:49;8.57;;;3.40;;
81531;SDS011;71505;47.030;15.458;2023-07-20T03:07:14;5.35;;;3.50;;
81531;SDS011;71505;47.030;15.458;2023-07-20T03:09:40;7.47;;;3.50;;
81531;SDS011;71505;47.030;15.458;2023-07-20T03:12:07;6.55;;;3.40;;
81531;SDS011;71505;47.030;15.458;2023-07-20T03:14:33;6.82;;;3.67;;
81531;SDS011;71505;47.030;15.458;2023-07-20T03:16:59;4.90;;;3.30;;
81531;SDS011;71505;47.030;15.458;2023-07-20T03:19:25;9.02;;;3.70;;
81531;SDS011;71505;47.030;15.458;2023-07-20T03:21:51;7.07;;;3.20;;
81531;SDS011;71505;47.030;15.458;2023-07-20T03:24:17;6.55;;;3.47;;
81531;SDS011;71505;47.030;15.458;2023-07-20T03:26:43;6.97;;;3.05;;
81531;SDS011;71505;47.030;15.458;2023-07-20T03:29:08;5.18;;;3.03;;
81531;SDS011;71505;47.030;15.458;2023-07-20T03:31:34;4.95;;;3.05;;
81531;SDS011;71505;47.030;15.458;2023-07-20T03:34:00;5.55;;;2.78;;
81531;SDS011;71505;47.030;15.458;2023-07-20T03:36:26;4.53;;;2.50;;
81531;SDS011;71505;47.030;15.458;2023-07-20T03:38:52;4.20;;;2.70;;
81531;SDS011;71505;47.030;15.458;2023-07-20T03:41:18;4.75;;;2.50;;
81531;SDS011;71505;47.030;15.458;2023-07-20T03:43:45;4.60;;;2.72;;
81531;SDS011;71505;47.030;15.458;2023-07-20T03:46:11;4.97;;;2.60;;
81531;SDS011;71505;47.030;15.458;2023-07-20T03:48:37;3.63;;;2.40;;
81531;SDS011;71505;47.030;15.458;2023-07-20T03:51:03;4.30;;;2.50;;
81531;SDS011;71505;47.030;15.458;2023-07-20T03:53:29;4.30;;;2.60;;
81531;SDS011;71505;47.030;15.458;2023-07-20T03:55:55;5.32;;;2.72;;
81531;SDS011;71505;47.030;15.458;2023-07-20T03:58:21;3.72;;;2.50;;
81531;SDS011;71505;47.030;15.458;2023-07-20T04:00:50;6.65;;;2.75;;
81531;SDS011;71505;47.030;15.458;2023-07-20T04:03:20;3.65;;;2.60;;
81531;SDS011;71505;47.030;15.458;2023-07-20T04:05:48;3.70;;;2.50;;
81531;SDS011;71505;47.030;15.458;2023-07-20T04:08:13;4.40;;;2.92;;
81531;SDS011;71505;47.030;15.458;2023-07-20T04:10:42;4.72;;;2.40;;
81531;SDS011;71505;47.030;15.458;2023-07-20T04:13:09;5.63;;;2.70;;
81531;SDS011;71505;47.030;15.458;2023-07-20T04:15:35;4.40;;;2.50;;
81531;SDS011;71505;47.030;15.458;2023-07-20T04:18:01;5.60;;;2.45;;
81531;SDS011;71505;47.030;15.458;2023-07-20T04:20:26;5.20;;;2.75;;
81531;SDS011;71505;47.030;15.458;2023-07-20T04:22:52;4.78;;;2.63;;
81531;SDS011;71505;47.030;15.458;2023-07-20T04:25:19;3.92;;;2.47;;
81531;SDS011;71505;47.030;15.458;2023-07-20T04:27:45;3.83;;;2.72;;
81531;SDS011;71505;47.030;15.458;2023-07-20T04:30:11;7.40;;;2.97;;
81531;SDS011;71505;47.030;15.458;2023-07-20T04:32:41;4.93;;;2.72;;
81531;SDS011;71505;47.030;15.458;2023-07-20T04:35:11;12.82;;;3.60;;
81531;SDS011;71505;47.030;15.458;2023-07-20T04:37:42;3.90;;;2.60;;
81531;SDS011;71505;47.030;15.458;2023-07-20T04:40:11;7.35;;;3.28;;
81531;SDS011;71505;47.030;15.458;2023-07-20T04:42:40;3.25;;;2.40;;
81531;SDS011;71505;47.030;15.458;2023-07-20T04:45:06;4.60;;;2.83;;
81531;SDS011;71505;47.030;15.458;2023-07-20T04:47:33;5.25;;;2.83;;
81531;SDS011;71505;47.030;15.458;2023-07-20T04:49:59;8.70;;;4.03;;
81531;SDS011;71505;47.030;15.458;2023-07-20T04:52:25;5.97;;;2.65;;
81531;SDS011;71505;47.030;15.458;2023-07-20T04:54:51;5.82;;;2.78;;
81531;SDS011;71505;47.030;15.458;2023-07-20T04:57:17;3.95;;;2.85;;
81531;SDS011;71505;47.030;15.458;2023-07-20T04:59:43;4.53;;;2.80;;
81531;SDS011;71505;47.030;15.458;2023-07-20T05:02:09;5.90;;;3.15;;
81531;SDS011;71505;47.030;15.458;2023-07-20T05:04:34;4.85;;;2.70;;
81531;SDS011;71505;47.030;15.458;2023-07-20T05:07:01;6.50;;;2.95;;
81531;SDS011;71505;47.030;15.458;2023-07-20T05:09:27;4.65;;;2.80;;
81531;SDS011;71505;47.030;15.458;2023-07-20T05:11:53;3.92;;;2.63;;
81531;SDS011;71505;47.030;15.458;2023-07-20T05:14:18;4.68;;;2.63;;
81531;SDS011;71505;47.030;15.458;2023-07-20T05:16:44;4.53;;;2.67;;
81531;SDS011;71505;47.030;15.458;2023-07-20T05:19:10;3.67;;;2.60;;
81531;SDS011;71505;47.030;15.458;2023-07-20T05:21:36;4.28;;;2.67;;
81531;SDS011;71505;47.030;15.458;2023-07-20T05:24:02;4.53;;;2.67;;
81531;SDS011;71505;47.030;15.458;2023-07-20T05:26:28;5.75;;;2.63;;
81531;SDS011;71505;47.030;15.458;2023-07-20T05:28:54;3.45;;;2.33;;
81531;SDS011;71505;47.030;15.458;2023-07-20T05:31:20;4.15;;;2.53;;
81531;SDS011;71505;47.030;15.458;2023-07-20T05:33:46;5.05;;;2.83;;
81531;SDS011;71505;47.030;15.458;2023-07-20T05:36:27;4.68;;;2.50;;
81531;SDS011;71505;47.030;15.458;2023-07-20T05:38:53;6.03;;;2.92;;
81531;SDS011;71505;47.030;15.458;2023-07-20T05:41:19;3.35;;;2.40;;
81531;SDS011;71505;47.030;15.458;2023-07-20T05:43:45;5.65;;;3.17;;
81531;SDS011;71505;47.030;15.458;2023-07-20T05:46:11;5.35;;;2.85;;
81531;SDS011;71505;47.030;15.458;2023-07-20T05:48:37;4.32;;;2.88;;
81531;SDS011;71505;47.030;15.458;2023-07-20T05:51:03;3.90;;;2.72;;
81531;SDS011;71505;47.030;15.458;2023-07-20T05:53:29;4.35;;;3.10;;
81531;SDS011;71505;47.030;15.458;2023-07-20T05:55:55;4.05;;;2.65;;
81531;SDS011;71505;47.030;15.458;2023-07-20T05:58:21;8.48;;;3.67;;
81531;SDS011;71505;47.030;15.458;2023-07-20T06:00:48;4.80;;;3.10;;
81531;SDS011;71505;47.030;15.458;2023-07-20T06:03:15;7.10;;;3.00;;
81531;SDS011;71505;47.030;15.458;2023-07-20T06:05:46;5.05;;;3.10;;
81531;SDS011;71505;47.030;15.458;2023-07-20T06:08:12;5.22;;;3.30;;
81531;SDS011;71505;47.030;15.458;2023-07-20T06:10:38;6.20;;;3.17;;
81531;SDS011;71505;47.030;15.458;2023-07-20T06:13:04;6.57;;;3.35;;
81531;SDS011;71505;47.030;15.458;2023-07-20T06:15:31;5.65;;;3.10;;
81531;SDS011;71505;47.030;15.458;2023-07-20T06:18:00;5.47;;;3.30;;
81531;SDS011;71505;47.030;15.458;2023-07-20T06:20:26;5.45;;;3.33;;
81531;SDS011;71505;47.030;15.458;2023-07-20T06:22:52;6.10;;;3.35;;
81531;SDS011;71505;47.030;15.458;2023-07-20T06:25:18;7.93;;;4.05;;
81531;SDS011;71505;47.030;15.458;2023-07-20T06:27:46;6.32;;;3.45;;
81531;SDS011;71505;47.030;15.458;2023-07-20T06:30:15;9.02;;;4.30;;
81531;SDS011;71505;47.030;15.458;2023-07-20T06:32:41;6.55;;;3.92;;
81531;SDS011;71505;47.030;15.458;2023-07-20T06:35:07;7.10;;;3.83;;
81531;SDS011;71505;47.030;15.458;2023-07-20T06:37:34;8.73;;;4.05;;
81531;SDS011;71505;47.030;15.458;2023-07-20T06:40:01;7.47;;;4.10;;
81531;SDS011;71505;47.030;15.458;2023-07-20T06:42:30;9.18;;;4.50;;
81531;SDS011;71505;47.030;15.458;2023-07-20T06:44:57;9.68;;;4.07;;
81531;SDS011;71505;47.030;15.458;2023-07-20T06:47:23;7.53;;;3.85;;
81531;SDS011;71505;47.030;15.458;2023-07-20T06:49:49;6.80;;;3.85;;
81531;SDS011;71505;47.030;15.458;2023-07-20T06:52:15;8.65;;;3.83;;
81531;SDS011;71505;47.030;15.458;2023-07-20T06:54:41;9.18;;;4.10;;
81531;SDS011;71505;47.030;15.458;2023-07-20T06:57:07;7.32;;;4.13;;
81531;SDS011;71505;47.030;15.458;2023-07-20T06:59:32;6.32;;;3.13;;
81531;SDS011;71505;47.030;15.458;2023-07-20T07:01:58;6.50;;;3.60;;
81531;SDS011;71505;47.030;15.458;2023-07-20T07:04:25;7.60;;;3.85;;
81531;SDS011;71505;47.030;15.458;2023-07-20T07:06:51;8.30;;;3.72;;
81531;SDS011;71505;47.030;15.458;2023-07-20T07:09:17;7.55;;;4.35;;
81531;SDS011;71505;47.030;15.458;2023-07-20T07:11:43;5.30;;;3.40;;
81531;SDS011;71505;47.030;15.458;2023-07-20T07:14:09;7.65;;;3.63;;
81531;SDS011;71505;47.030;15.458;2023-07-20T07:16:37;4.88;;;3.50;;
81531;SDS011;71505;47.030;15.458;2023-07-20T07:19:03;5.00;;;3.10;;
81531;SDS011;71505;47.030;15.458;2023-07-20T07:21:31;7.80;;;3.60;;
81531;SDS011;71505;47.030;15.458;2023-07-20T07:23:57;7.85;;;3.67;;
81531;SDS011;71505;47.030;15.458;2023-07-20T07:26:25;7.15;;;3.70;;
81531;SDS011;71505;47.030;15.458;2023-07-20T07:28:51;7.68;;;3.28;;
81531;SDS011;71505;47.030;15.458;2023-07-20T07:31:17;6.82;;;3.60;;
81531;SDS011;71505;47.030;15.458;2023-07-20T07:33:43;5.72;;;3.03;;
81531;SDS011;71505;47.030;15.458;2023-07-20T07:36:09;7.25;;;3.20;;
81531;SDS011;71505;47.030;15.458;2023-07-20T07:38:35;6.15;;;3.38;;
81531;SDS011;71505;47.030;15.458;2023-07-20T07:41:01;3.85;;;3.00;;
81531;SDS011;71505;47.030;15.458;2023-07-20T07:43:27;6.32;;;2.90;;
81531;SDS011;71505;47.030;15.458;2023-07-20T07:45:54;4.80;;;3.03;;
81531;SDS011;71505;47.030;15.458;2023-07-20T07:48:21;4.63;;;3.00;;
81531;SDS011;71505;47.030;15.458;2023-07-20T07:50:47;4.80;;;3.30;;
81531;SDS011;71505;47.030;15.458;2023-07-20T07:53:15;4.78;;;2.95;;
81531;SDS011;71505;47.030;15.458;2023-07-20T07:55:41;4.43;;;3.08;;
81531;SDS011;71505;47.030;15.458;2023-07-20T07:58:07;6.97;;;3.42;;
81531;SDS011;71505;47.030;15.458;2023-07-20T08:00:34;9.10;;;3.72;;
81531;SDS011;71505;47.030;15.458;2023-07-20T08:02:59;5.45;;;3.42;;
81531;SDS011;71505;47.030;15.458;2023-07-20T08:05:25;7.13;;;3.40;;
81531;SDS011;71505;47.030;15.458;2023-07-20T08:07:51;5.65;;;3.20;;
81531;SDS011;71505;47.030;15.458;2023-07-20T08:10:18;6.40;;;3.25;;
81531;SDS011;71505;47.030;15.458;2023-07-20T08:12:44;4.80;;;3.20;;
81531;SDS011;71505;47.030;15.458;2023-07-20T08:15:13;5.90;;;3.22;;
81531;SDS011;71505;47.030;15.458;2023-07-20T08:17:40;6.38;;;3.05;;
81531;SDS011;71505;47.030;15.458;2023-07-20T08:20:08;4.65;;;3.13;;
81531;SDS011;71505;47.030;15.458;2023-07-20T08:22:37;5.28;;;2.97;;
81531;SDS011;71505;47.030;15.458;2023-07-20T08:25:05;6.93;;;3.20;;
81531;SDS011;71505;47.030;15.458;2023-07-20T08:27:32;3.67;;;2.92;;
81531;SDS011;71505;47.030;15.458;2023-07-20T08:29:58;5.80;;;3.20;;
81531;SDS011;71505;47.030;15.458;2023-07-20T08:32:24;4.93;;;3.45;;
81531;SDS011;71505;47.030;15.458;2023-07-20T08:34:51;6.10;;;3.70;;
81531;SDS011;71505;47.030;15.458;2023-07-20T08:37:17;6.88;;;3.83;;
81531;SDS011;71505;47.030;15.458;2023-07-20T08:39:43;6.13;;;3.92;;
81531;SDS011;71505;47.030;15.458;2023-07-20T08:42:09;5.50;;;3.70;;
81531;SDS011;71505;47.030;15.458;2023-07-20T08:44:38;6.25;;;3.35;;
81531;SDS011;71505;47.030;15.458;2023-07-20T08:47:05;5.53;;;3.70;;
81531;SDS011;71505;47.030;15.458;2023-07-20T08:49:32;6.38;;;3.75;;
81531;SDS011;71505;47.030;15.458;2023-07-20T08:51:58;6.65;;;3.72;;
81531;SDS011;71505;47.030;15.458;2023-07-20T08:54:30;4.90;;;3.40;;
81531;SDS011;71505;47.030;15.458;2023-07-20T08:57:03;6.25;;;3.55;;
81531;SDS011;71505;47.030;15.458;2023-07-20T08:59:30;8.50;;;3.80;;
81531;SDS011;71505;47.030;15.458;2023-07-20T09:02:04;5.65;;;3.55;;
81531;SDS011;71505;47.030;15.458;2023-07-20T09:04:32;6.95;;;3.70;;
81531;SDS011;71505;47.030;15.458;2023-07-20T09:06:58;6.32;;;3.65;;
81531;SDS011;71505;47.030;15.458;2023-07-20T09:09:25;6.43;;;3.33;;
81531;SDS011;71505;47.030;15.458;2023-07-20T09:11:51;6.22;;;4.20;;
81531;SDS011;71505;47.030;15.458;2023-07-20T09:14:17;4.18;;;3.20;;
81531;SDS011;71505;47.030;15.458;2023-07-20T09:16:47;5.78;;;3.42;;
81531;SDS011;71505;47.030;15.458;2023-07-20T09:19:17;5.68;;;3.20;;
81531;SDS011;71505;47.030;15.458;2023-07-20T09:21:46;5.50;;;3.00;;
81531;SDS011;71505;47.030;15.458;2023-07-20T09:24:14;4.57;;;3.17;;
81531;SDS011;71505;47.030;15.458;2023-07-20T09:26:43;4.10;;;3.38;;
81531;SDS011;71505;47.030;15.458;2023-07-20T09:29:13;5.40;;;3.33;;
81531;SDS011;71505;47.030;15.458;2023-07-20T09:31:40;5.05;;;3.63;;
81531;SDS011;71505;47.030;15.458;2023-07-20T09:34:06;5.30;;;3.50;;
81531;SDS011;71505;47.030;15.458;2023-07-20T09:36:34;6.28;;;3.85;;
81531;SDS011;71505;47.030;15.458;2023-07-20T09:39:02;4.82;;;3.33;;
81531;SDS011;71505;47.030;15.458;2023-07-20T09:41:30;4.15;;;3.00;;
81531;SDS011;71505;47.030;15.458;2023-07-20T09:44:02;4.22;;;3.20;;
81531;SDS011;71505;47.030;15.458;2023-07-20T09:46:40;4.07;;;3.00;;
81531;SDS011;71505;47.030;15.458;2023-07-20T09:49:13;6.70;;;3.58;;
81531;SDS011;71505;47.030;15.458;2023-07-20T09:51:40;4.70;;;3.78;;
81531;SDS011;71505;47.030;15.458;2023-07-20T09:54:07;5.40;;;3.63;;
81531;SDS011;71505;47.030;15.458;2023-07-20T09:56:34;5.82;;;3.88;;
81531;SDS011;71505;47.030;15.458;2023-07-20T09:59:00;7.50;;;4.32;;
81531;SDS011;71505;47.030;15.458;2023-07-20T10:01:26;4.80;;;3.60;;
81531;SDS011;71505;47.030;15.458;2023-07-20T10:03:53;7.15;;;3.90;;
81531;SDS011;71505;47.030;15.458;2023-07-20T10:06:23;4.88;;;3.70;;
81531;SDS011;71505;47.030;15.458;2023-07-20T10:08:53;4.35;;;3.60;;
81531;SDS011;71505;47.030;15.458;2023-07-20T10:11:21;6.80;;;3.83;;
81531;SDS011;71505;47.030;15.458;2023-07-20T10:13:49;5.22;;;3.40;;
81531;SDS011;71505;47.030;15.458;2023-07-20T10:16:22;4.07;;;3.22;;
81531;SDS011;71505;47.030;15.458;2023-07-20T10:19:02;7.45;;;3.92;;
81531;SDS011;71505;47.030;15.458;2023-07-20T10:21:29;4.38;;;3.30;;
81531;SDS011;71505;47.030;15.458;2023-07-20T10:23:59;5.10;;;3.50;;
81531;SDS011;71505;47.030;15.458;2023-07-20T10:26:25;7.32;;;3.60;;
81531;SDS011;71505;47.030;15.458;2023-07-20T10:28:51;4.40;;;3.30;;
81531;SDS011;71505;47.030;15.458;2023-07-20T10:31:18;5.80;;;4.03;;
81531;SDS011;71505;47.030;15.458;2023-07-20T10:33:45;5.43;;;3.33;;
81531;SDS011;71505;47.030;15.458;2023-07-20T10:36:12;5.03;;;3.25;;
81531;SDS011;71505;47.030;15.458;2023-07-20T10:43:43;4.22;;;3.22;;
81531;SDS011;71505;47.030;15.458;2023-07-20T10:46:11;5.13;;;3.53;;
81531;SDS011;71505;47.030;15.458;2023-07-20T10:49:00;4.35;;;3.10;;
81531;SDS011;71505;47.030;15.458;2023-07-20T10:51:26;3.95;;;3.20;;
81531;SDS011;71505;47.030;15.458;2023-07-20T10:53:52;4.47;;;3.20;;
81531;SDS011;71505;47.030;15.458;2023-07-20T10:56:21;6.07;;;2.72;;
81531;SDS011;71505;47.030;15.458;2023-07-20T10:58:47;5.15;;;3.00;;
81531;SDS011;71505;47.030;15.458;2023-07-20T11:01:14;4.22;;;2.55;;
81531;SDS011;71505;47.030;15.458;2023-07-20T11:09:03;4.75;;;2.85;;
81531;SDS011;71505;47.030;15.458;2023-07-20T11:11:34;4.32;;;2.78;;
81531;SDS011;71505;47.030;15.458;2023-07-20T11:14:03;3.42;;;2.95;;
81531;SDS011;71505;47.030;15.458;2023-07-20T11:16:50;4.43;;;2.85;;
81531;SDS011;71505;47.030;15.458;2023-07-20T11:19:18;5.38;;;3.00;;
81531;SDS011;71505;47.030;15.458;2023-07-20T11:21:49;4.95;;;2.90;;
81531;SDS011;71505;47.030;15.458;2023-07-20T11:24:16;4.00;;;2.95;;
81531;SDS011;71505;47.030;15.458;2023-07-20T11:26:53;4.20;;;3.08;;
81531;SDS011;71505;47.030;15.458;2023-07-20T11:29:20;4.00;;;3.00;;
81531;SDS011;71505;47.030;15.458;2023-07-20T11:31:49;4.43;;;3.13;;
81531;SDS011;71505;47.030;15.458;2023-07-20T11:34:16;4.75;;;2.47;;
81531;SDS011;71505;47.030;15.458;2023-07-20T11:36:43;4.22;;;3.00;;
81531;SDS011;71505;47.030;15.458;2023-07-20T11:39:11;5.68;;;2.70;;
81531;SDS011;71505;47.030;15.458;2023-07-20T11:41:38;5.22;;;2.80;;
81531;SDS011;71505;47.030;15.458;2023-07-20T11:44:05;5.25;;;3.05;;
81531;SDS011;71505;47.030;15.458;2023-07-20T11:46:33;3.45;;;2.42;;
81531;SDS011;71505;47.030;15.458;2023-07-20T11:49:00;4.78;;;2.78;;
81531;SDS011;71505;47.030;15.458;2023-07-20T11:51:27;4.18;;;2.65;;
81531;SDS011;71505;47.030;15.458;2023-07-20T11:53:54;4.82;;;2.88;;
81531;SDS011;71505;47.030;15.458;2023-07-20T11:56:22;4.35;;;2.78;;
81531;SDS011;71505;47.030;15.458;2023-07-20T11:58:48;3.97;;;2.92;;
81531;SDS011;71505;47.030;15.458;2023-07-20T12:01:14;4.03;;;2.80;;
81531;SDS011;71505;47.030;15.458;2023-07-20T12:03:41;4.78;;;3.15;;
81531;SDS011;71505;47.030;15.458;2023-07-20T12:06:09;4.07;;;3.22;;
81531;SDS011;71505;47.030;15.458;2023-07-20T12:08:39;5.43;;;3.08;;
81531;SDS011;71505;47.030;15.458;2023-07-20T12:11:06;4.90;;;3.00;;
81531;SDS011;71505;47.030;15.458;2023-07-20T12:13:40;5.45;;;3.17;;
81531;SDS011;71505;47.030;15.458;2023-07-20T12:16:14;5.75;;;3.55;;
81531;SDS011;71505;47.030;15.458;2023-07-20T12:18:42;6.70;;;3.33;;
81531;SDS011;71505;47.030;15.458;2023-07-20T12:21:09;4.68;;;3.58;;
81531;SDS011;71505;47.030;15.458;2023-07-20T12:23:39;4.85;;;3.00;;
81531;SDS011;71505;47.030;15.458;2023-07-20T12:26:09;6.78;;;3.60;;
81531;SDS011;71505;47.030;15.458;2023-07-20T12:28:38;3.92;;;3.05;;
81531;SDS011;71505;47.030;15.458;2023-07-20T12:31:08;4.07;;;2.90;;
81531;SDS011;71505;47.030;15.458;2023-07-20T12:33:36;6.18;;;3.20;;
81531;SDS011;71505;47.030;15.458;2023-07-20T12:36:03;4.90;;;2.53;;
81531;SDS011;71505;47.030;15.458;2023-07-20T12:38:30;3.53;;;2.50;;
81531;SDS011;71505;47.030;15.458;2023-07-20T12:40:56;4.75;;;2.70;;
81531;SDS011;71505;47.030;15.458;2023-07-20T12:43:24;3.85;;;2.50;;
81531;SDS011;71505;47.030;15.458;2023-07-20T12:45:50;3.17;;;2.40;;
81531;SDS011;71505;47.030;15.458;2023-07-20T12:48:16;5.28;;;2.58;;
81531;SDS011;71505;47.030;15.458;2023-07-20T12:50:42;6.35;;;2.53;;
81531;SDS011;71505;47.030;15.458;2023-07-20T12:53:08;3.75;;;2.60;;
81531;SDS011;71505;47.030;15.458;2023-07-20T12:55:34;3.22;;;2.47;;
81531;SDS011;71505;47.030;15.458;2023-07-20T12:58:00;4.13;;;2.30;;
81531;SDS011;71505;47.030;15.458;2023-07-20T13:00:26;6.00;;;2.60;;
81531;SDS011;71505;47.030;15.458;2023-07-20T13:02:52;5.80;;;2.60;;
81531;SDS011;71505;47.030;15.458;2023-07-20T13:05:18;3.45;;;2.13;;
81531;SDS011;71505;47.030;15.458;2023-07-20T13:07:44;3.33;;;2.03;;
81531;SDS011;71505;47.030;15.458;2023-07-20T13:10:11;4.57;;;2.03;;
81531;SDS011;71505;47.030;15.458;2023-07-20T13:12:38;3.30;;;1.90;;
81531;SDS011;71505;47.030;15.458;2023-07-20T13:15:05;4.68;;;2.13;;
81531;SDS011;71505;47.030;15.458;2023-07-20T13:17:32;15.35;;;3.10;;
81531;SDS011;71505;47.030;15.458;2023-07-20T13:20:02;6.00;;;2.38;;
81531;SDS011;71505;47.030;15.458;2023-07-20T13:24:59;3.47;;;1.80;;
81531;SDS011;71505;47.030;15.458;2023-07-20T13:27:28;3.83;;;2.20;;
81531;SDS011;71505;47.030;15.458;2023-07-20T13:29:55;3.67;;;2.03;;
81531;SDS011;71505;47.030;15.458;2023-07-20T13:32:21;4.50;;;2.20;;
81531;SDS011;71505;47.030;15.458;2023-07-20T13:34:48;4.43;;;2.20;;
81531;SDS011;71505;47.030;15.458;2023-07-20T13:37:14;2.60;;;2.10;;
81531;SDS011;71505;47.030;15.458;2023-07-20T13:39:41;4.63;;;2.08;;
81531;SDS011;71505;47.030;15.458;2023-07-20T13:42:07;3.30;;;2.10;;
81531;SDS011;71505;47.030;15.458;2023-07-20T13:44:36;3.72;;;2.35;;
81531;SDS011;71505;47.030;15.458;2023-07-20T13:47:06;3.22;;;2.40;;
81531;SDS011;71505;47.030;15.458;2023-07-20T13:49:32;4.90;;;2.55;;
81531;SDS011;71505;47.030;15.458;2023-07-20T13:51:58;4.20;;;2.42;;
81531;SDS011;71505;47.030;15.458;2023-07-20T13:54:25;5.68;;;2.60;;
81531;SDS011;71505;47.030;15.458;2023-07-20T13:56:51;3.95;;;2.58;;
81531;SDS011;71505;47.030;15.458;2023-07-20T13:59:17;4.18;;;2.20;;
81531;SDS011;71505;47.030;15.458;2023-07-20T14:01:43;3.05;;;2.50;;
81531;SDS011;71505;47.030;15.458;2023-07-20T14:04:09;4.63;;;2.88;;
81531;SDS011;71505;47.030;15.458;2023-07-20T14:06:35;3.15;;;2.30;;
81531;SDS011;71505;47.030;15.458;2023-07-20T14:09:01;5.05;;;2.88;;
81531;SDS011;71505;47.030;15.458;2023-07-20T14:11:28;3.47;;;2.50;;
81531;SDS011;71505;47.030;15.458;2023-07-20T14:13:54;5.85;;;2.90;;
81531;SDS011;71505;47.030;15.458;2023-07-20T14:16:20;3.33;;;2.75;;
81531;SDS011;71505;47.030;15.458;2023-07-20T14:18:47;4.07;;;2.70;;
81531;SDS011;71505;47.030;15.458;2023-07-20T14:21:14;3.97;;;2.85;;
81531;SDS011;71505;47.030;15.458;2023-07-20T14:23:41;3.10;;;2.80;;
81531;SDS011;71505;47.030;15.458;2023-07-20T14:26:07;3.38;;;2.72;;
81531;SDS011;71505;47.030;15.458;2023-07-20T14:28:34;4.20;;;3.40;;
81531;SDS011;71505;47.030;15.458;2023-07-20T14:31:00;4.10;;;3.10;;
81531;SDS011;71505;47.030;15.458;2023-07-20T14:33:26;5.25;;;3.30;;
81531;SDS011;71505;47.030;15.458;2023-07-20T14:35:52;3.80;;;2.90;;
81531;SDS011;71505;47.030;15.458;2023-07-20T14:38:18;4.40;;;3.00;;
81531;SDS011;71505;47.030;15.458;2023-07-20T14:40:44;4.15;;;2.83;;
81531;SDS011;71505;47.030;15.458;2023-07-20T14:43:11;4.05;;;2.78;;
81531;SDS011;71505;47.030;15.458;2023-07-20T14:45:40;3.80;;;3.40;;
81531;SDS011;71505;47.030;15.458;2023-07-20T14:48:07;3.22;;;2.92;;
81531;SDS011;71505;47.030;15.458;2023-07-20T14:50:33;6.25;;;3.50;;
81531;SDS011;71505;47.030;15.458;2023-07-20T14:53:00;5.43;;;3.30;;